This is the latest recevied weather packets stored in our database for station/object CALDNA-WX. If no packets are shown the sender has not sent any weather packets the latest 10 day(s).
| Time | Temp. | Humidity | Pressure | Rain* | Wind** | Luminosity | Snow |
|---|---|---|---|---|---|---|---|
| 1788147026 | 71° F | 77% | 740.3 mmHg | 0 in | - | - | - |
| 1788146126 | 71° F | 77% | 740.3 mmHg | 0 in | - | - | - |
| 1788145226 | 71° F | 77% | 740.3 mmHg | 0 in | - | - | - |
| 1788144325 | 71° F | 76% | 740.5 mmHg | 0 in | - | - | - |
| 1788143426 | 72° F | 76% | 740.8 mmHg | 0 in | - | - | - |
| 1788142525 | 71° F | 76% | 740.8 mmHg | 0 in | - | - | - |
| 1788141626 | 72° F | 76% | 740.8 mmHg | 0 in | - | - | - |
| 1788140725 | 72° F | 82% | 740.2 mmHg | 0 in | - | - | - |
| 1788139825 | 72° F | 82% | 740.2 mmHg | 0 in | - | - | - |
| 1788138021 | 72° F | 82% | 740.2 mmHg | 0 in | - | - | - |
| 1788137125 | 73° F | 75% | 740.5 mmHg | 0 in | - | - | - |
| 1788136225 | 74° F | 73% | 740.5 mmHg | 0 in | - | - | - |
| 1788135324 | 74° F | 73% | 740.5 mmHg | 0 in | - | - | - |
| 1788134427 | 75° F | 73% | 740.5 mmHg | 0 in | - | - | - |
| 1788133525 | 76° F | 68% | 740.7 mmHg | 0 in | - | - | - |
| 1788132626 | 76° F | 65% | 740.7 mmHg | 0 in | - | - | - |
| 1788131722 | 77° F | 65% | 740.7 mmHg | 0 in | - | - | - |
| 1788130825 | 78° F | 65% | 740.7 mmHg | 0 in | - | - | - |
| 1788129925 | 79° F | 59% | 741.1 mmHg | 0 in | - | - | - |
| 1788129026 | 77° F | 60% | 741.2 mmHg | 0 in | - | - | - |
| 1788128125 | 78° F | 60% | 741.2 mmHg | 0 in | - | - | - |
| 1788127230 | 78° F | 60% | 741.2 mmHg | 0 in | - | - | - |
| 1788126325 | 80° F | 62% | 740.9 mmHg | 0 in | - | - | - |
| 1788125426 | 81° F | 56% | 741.1 mmHg | 0 in | - | - | - |
| 1788124524 | 81° F | 56% | 741.3 mmHg | 0 in | - | - | - |
* Rain latest hour (hover to see other rain measurements)
** Current wind speed in m/s (hover to see current wind gust speed)